Decoded Metar for KELZ (WELLSVILLE in NY, USA) (IATA:ELZ) | Meteo·Mobile Aviation Weather
aviador You're here:

KELZ Decoded Metar

WELLSVILLE in NY, USA
Report Time2019-07-23 06:01:00
UTC Time2019-07-23 06:57:04
Flight Rules mvfr MVFR
Wind320° at 03 kt
W.Decomp.*RWY 28: 2.0 kt HW 2.2 kt RCW
Visibility9656 m
Phenomena:Mist
Clouds:Scattered 007 Hf
Broken 025 Hf
Overcast 031 Hf
Ceiling2,500 ft
Temp15°C (ISA +4)
Dew Point15°C (100% RH)
QNH1014 hPa
Density Alt2,818 ft
Elevation2,119 ft
Report Wrong Elevation
Raw Report
KELZ 230601Z AUTO 32003KT 6SM BR SCT007 BKN025 OVC031 15/15 A2993
RMK AO2 T01500150=

Extra information for KELZ:More info

Metar Taf Metar & Taf Last 4 Metars F.Rules Stats Wind Profile Meteogram Temp Stats Airport Information Weather charts Add Link Nearby VenuesMetar ALERT Operation Metar Decoded Social comments

AIRNAV info for KELZ